Terminal Aerodrome Forecast
Issued by NWS Atlanta, GA

Home | Current Version | Previous Version | Text Only | Print | Product List | Glossary On
Versions: 1 2 3 4 5 6 7 8 9 10 11 12 13 14 15 16 17 18 19 20 21 22 23 24 25 26 27 28 29 30
000
FTUS42 KFFC 221100
TAFMCN
TAF
KMCN 221125Z 2212/2312 05004KT P6SM BKN007
      TEMPO 2212/2214 5SM -SHRA BR SCT007 BKN015
     FM221400 07003KT P6SM BKN015
     FM221600 07005KT P6SM VCSH SCT020 BKN035
      TEMPO 2219/2223 5SM -TSRA BR BKN015CB
     FM230000 00000KT P6SM SCT040 BKN120
     FM230900 00000KT P6SM BKN006=

USA.gov is the U.S. government's official web portal to all federal, state and local government web resources and services.